createdAt,value
2023-05-19T00:03:23.800Z,17.98
2023-05-19T00:08:25.467Z,18.03
2023-05-19T00:13:27.997Z,18.06
2023-05-19T00:18:29.669Z,18.08
2023-05-19T00:23:31.563Z,18.12
2023-05-19T00:28:43.816Z,18.12
2023-05-19T00:33:45.687Z,18.13
2023-05-19T00:38:47.497Z,18.15
2023-05-19T00:43:49.559Z,18.14
2023-05-19T00:48:51.265Z,18.15
2023-05-19T00:53:53.896Z,18.12
2023-05-19T00:58:55.701Z,18.09
2023-05-19T01:03:57.865Z,18.17
2023-05-19T01:08:59.795Z,18.22
2023-05-19T01:14:08.323Z,18.27
2023-05-19T01:19:31.883Z,18.26
2023-05-19T01:25:08.380Z,18.20
2023-05-19T01:30:22.444Z,18.08
2023-05-19T01:35:25.781Z,17.92
2023-05-19T01:40:28.239Z,17.81
2023-05-19T01:45:30.630Z,17.75
2023-05-19T01:50:33.036Z,17.67
2023-05-19T01:55:43.712Z,17.62
2023-05-19T02:00:58.186Z,17.60
2023-05-19T02:06:09.110Z,17.55
2023-05-19T02:11:23.162Z,17.53
2023-05-19T02:16:28.948Z,17.51
2023-05-19T02:21:30.856Z,17.50
2023-05-19T02:26:35.029Z,17.47
2023-05-19T02:31:37.523Z,17.47
2023-05-19T02:36:40.733Z,17.41
2023-05-19T02:41:45.381Z,17.34
2023-05-19T02:46:47.323Z,17.27
2023-05-19T02:51:49.238Z,17.17
2023-05-19T02:56:50.955Z,17.10
2023-05-19T03:01:55.412Z,17.03
2023-05-19T03:07:01.205Z,16.97
2023-05-19T03:12:02.914Z,16.89
2023-05-19T03:17:05.202Z,16.83
2023-05-19T03:22:07.073Z,16.79
2023-05-19T03:27:08.820Z,16.77
2023-05-19T03:32:10.567Z,16.75
2023-05-19T03:37:12.582Z,16.75
2023-05-19T03:42:14.529Z,16.78
2023-05-19T03:47:16.343Z,16.84
2023-05-19T03:52:18.226Z,16.93
2023-05-19T03:57:20.199Z,17.08
2023-05-19T04:02:23.062Z,17.25
2023-05-19T04:07:24.795Z,17.39
2023-05-19T04:12:26.754Z,17.53
2023-05-19T04:17:28.657Z,17.65
2023-05-19T04:22:30.715Z,17.79
2023-05-19T04:27:32.520Z,17.92
2023-05-19T04:32:35.526Z,18.13
2023-05-19T04:37:37.682Z,18.27
2023-05-19T04:42:39.663Z,18.43
2023-05-19T04:47:42.104Z,18.57
2023-05-19T04:52:44.009Z,18.71
2023-05-19T04:57:45.821Z,18.90
2023-05-19T05:02:47.491Z,19.04
2023-05-19T05:07:49.489Z,19.14
2023-05-19T05:12:51.684Z,19.26
2023-05-19T05:17:53.832Z,19.47
2023-05-19T05:22:56.432Z,19.69
2023-05-19T05:27:58.196Z,19.90
2023-05-19T05:33:00.104Z,20.12
2023-05-19T05:38:02.778Z,20.28
2023-05-19T05:43:04.529Z,20.49
2023-05-19T05:48:06.819Z,20.67
2023-05-19T05:53:08.616Z,20.92
2023-05-19T05:58:10.295Z,21.20
2023-05-19T06:03:12.124Z,21.47
2023-05-19T06:08:14.165Z,21.71
2023-05-19T06:13:15.958Z,21.90
2023-05-19T06:18:18.529Z,22.07
2023-05-19T06:23:21.032Z,22.14
2023-05-19T06:28:22.712Z,22.16
2023-05-19T06:33:27.376Z,22.26
2023-05-19T06:38:30.563Z,22.45
2023-05-19T06:43:32.252Z,22.71
2023-05-19T06:48:34.006Z,22.88
2023-05-19T06:53:35.685Z,22.94
2023-05-19T06:58:37.851Z,23.05
2023-05-19T07:03:39.613Z,23.29
2023-05-19T07:08:41.712Z,23.51
2023-05-19T07:13:43.996Z,23.61
2023-05-19T07:18:45.713Z,23.79
2023-05-19T07:23:48.162Z,24.02
2023-05-19T07:28:49.869Z,24.23
2023-05-19T07:33:54.316Z,24.29
2023-05-19T07:38:56.405Z,24.36
2023-05-19T07:43:58.242Z,24.54
2023-05-19T07:49:00.128Z,24.59
2023-05-19T07:54:01.855Z,24.61
2023-05-19T07:59:03.979Z,24.92
2023-05-19T08:04:05.948Z,25.27
2023-05-19T08:09:08.035Z,25.37
2023-05-19T08:14:09.710Z,25.45
2023-05-19T08:19:11.511Z,25.51
2023-05-19T08:24:13.876Z,25.52
2023-05-19T08:29:15.761Z,25.57
2023-05-19T08:34:17.734Z,25.77
2023-05-19T08:39:19.617Z,26.00
2023-05-19T08:44:21.940Z,26.16
2023-05-19T08:49:27.373Z,26.18
2023-05-19T08:54:32.340Z,26.14
2023-05-19T08:59:34.196Z,26.14
2023-05-19T09:04:38.926Z,26.23
2023-05-19T09:09:41.637Z,26.41
2023-05-19T09:14:43.717Z,26.58
2023-05-19T09:19:45.374Z,26.63
2023-05-19T09:24:48.060Z,26.85
2023-05-19T09:29:49.753Z,27.01
2023-05-19T09:34:51.539Z,27.23
2023-05-19T09:39:53.301Z,27.42
2023-05-19T09:45:02.251Z,27.51
2023-05-19T09:50:09.122Z,27.55
2023-05-19T09:55:12.159Z,27.63
2023-05-19T10:00:14.660Z,27.76
2023-05-19T10:05:20.261Z,27.73
2023-05-19T10:10:26.803Z,27.62
2023-05-19T10:15:29.093Z,27.65
2023-05-19T10:20:31.040Z,27.82
2023-05-19T10:25:35.921Z,28.35
2023-05-19T10:30:40.795Z,29.33
2023-05-19T10:36:00.977Z,30.54
2023-05-19T10:41:27.460Z,31.51
2023-05-19T10:46:29.742Z,32.14
2023-05-19T10:51:31.936Z,31.37
2023-05-19T10:56:34.377Z,30.70
2023-05-19T11:01:36.201Z,30.95
2023-05-19T11:06:39.308Z,31.91
2023-05-19T11:11:54.286Z,32.78
2023-05-19T11:16:59.795Z,32.91
2023-05-19T11:22:12.302Z,33.24
2023-05-19T11:27:19.671Z,33.65
2023-05-19T11:32:22.131Z,33.04
2023-05-19T11:37:23.851Z,32.44
2023-05-19T11:42:25.638Z,32.40
2023-05-19T11:47:28.037Z,32.86
2023-05-19T11:52:29.868Z,33.59
2023-05-19T11:57:31.677Z,34.25
2023-05-19T12:02:34.284Z,35.12
2023-05-19T12:07:36.432Z,35.60
2023-05-19T12:12:38.207Z,36.05
2023-05-19T12:17:40.035Z,35.24
2023-05-19T12:22:41.963Z,33.51
2023-05-19T12:27:44.368Z,32.37
2023-05-19T12:32:50.138Z,33.04
2023-05-19T12:37:52.105Z,34.86
2023-05-19T12:42:56.643Z,35.94
2023-05-19T12:47:58.456Z,36.20
2023-05-19T12:53:00.402Z,35.93
2023-05-19T12:58:05.786Z,35.09
2023-05-19T13:03:09.203Z,34.45
2023-05-19T13:08:15.256Z,33.95
2023-05-19T13:13:17.308Z,33.21
2023-05-19T13:18:19.018Z,32.75
2023-05-19T13:23:21.102Z,32.45
2023-05-19T13:28:22.898Z,32.18
2023-05-19T13:33:24.520Z,32.01
2023-05-19T13:38:26.418Z,31.71
2023-05-19T13:43:28.118Z,31.38
2023-05-19T13:48:29.979Z,31.12
2023-05-19T13:53:32.002Z,30.85
2023-05-19T13:58:34.448Z,30.63
2023-05-19T14:03:36.278Z,29.85
2023-05-19T14:08:38.309Z,28.53
2023-05-19T14:13:42.721Z,27.40
2023-05-19T14:18:46.277Z,26.60
2023-05-19T14:23:48.399Z,25.92
2023-05-19T14:28:50.343Z,25.41
2023-05-19T14:33:58.243Z,25.00
2023-05-19T14:39:00.032Z,24.68
2023-05-19T14:44:02.000Z,24.47
2023-05-19T14:49:03.880Z,24.31
2023-05-19T14:54:05.664Z,24.26
2023-05-19T14:59:07.740Z,24.34
2023-05-19T15:04:09.818Z,24.36
2023-05-19T15:09:11.804Z,24.42
2023-05-19T15:14:15.321Z,24.43
2023-05-19T15:19:17.980Z,24.45
2023-05-19T15:24:20.815Z,24.53
2023-05-19T15:29:26.275Z,24.61
2023-05-19T15:34:29.284Z,24.66
2023-05-19T15:39:33.531Z,24.71
2023-05-19T15:44:35.402Z,24.58
2023-05-19T15:49:37.197Z,24.29
2023-05-19T15:54:38.852Z,24.05
2023-05-19T15:59:40.730Z,23.95
2023-05-19T16:04:43.631Z,23.89
2023-05-19T16:09:45.328Z,23.80
2023-05-19T16:14:47.188Z,23.73
2023-05-19T16:19:48.992Z,23.69
2023-05-19T16:24:51.396Z,23.59
2023-05-19T16:29:53.135Z,23.43
2023-05-19T16:34:54.797Z,23.37
2023-05-19T16:39:56.583Z,23.35
2023-05-19T16:44:58.552Z,23.34
2023-05-19T16:50:00.337Z,23.30
2023-05-19T16:55:02.206Z,23.24
2023-05-19T17:00:07.786Z,23.22
2023-05-19T17:05:09.539Z,23.17
2023-05-19T17:10:11.323Z,23.12
2023-05-19T17:15:13.177Z,23.12
2023-05-19T17:20:17.367Z,23.12
2023-05-19T17:25:19.212Z,23.08
2023-05-19T17:30:21.290Z,23.06
2023-05-19T17:35:23.173Z,23.08
2023-05-19T17:40:25.060Z,23.16
2023-05-19T17:45:26.928Z,23.16
2023-05-19T17:50:28.914Z,23.19
2023-05-19T17:55:35.903Z,23.20
2023-05-19T18:00:38.220Z,23.21
2023-05-19T18:05:40.722Z,23.23
2023-05-19T18:10:43.102Z,23.21
2023-05-19T18:15:45.164Z,23.19
2023-05-19T18:20:47.035Z,23.12
2023-05-19T18:25:49.988Z,23.07
2023-05-19T18:31:01.954Z,22.97
2023-05-19T18:36:04.337Z,22.86
2023-05-19T18:41:06.910Z,22.73
2023-05-19T18:46:08.898Z,22.64
2023-05-19T18:51:10.901Z,22.63
2023-05-19T18:56:13.801Z,22.56
2023-05-19T19:01:15.846Z,22.48
2023-05-19T19:06:17.665Z,22.37
2023-05-19T19:11:25.113Z,22.18
2023-05-19T19:16:27.811Z,22.06
2023-05-19T19:21:30.897Z,21.92
2023-05-19T19:26:32.855Z,21.84
2023-05-19T19:31:34.824Z,21.76
2023-05-19T19:36:36.714Z,21.65
2023-05-19T19:41:38.553Z,21.57
2023-05-19T19:46:40.723Z,21.50
2023-05-19T19:51:42.493Z,21.49
2023-05-19T19:56:44.754Z,21.60
2023-05-19T20:01:46.695Z,21.66
2023-05-19T20:06:48.602Z,21.62
2023-05-19T20:11:50.479Z,21.55
2023-05-19T20:16:52.407Z,21.60
2023-05-19T20:21:54.354Z,21.64
2023-05-19T20:26:56.327Z,21.68
2023-05-19T20:31:58.194Z,21.65
2023-05-19T20:37:00.020Z,21.63
2023-05-19T20:42:01.747Z,21.57
2023-05-19T20:47:03.629Z,21.49
2023-05-19T20:52:05.549Z,21.48
2023-05-19T20:57:07.496Z,21.46
2023-05-19T21:02:09.579Z,21.43
2023-05-19T21:07:11.622Z,21.41
2023-05-19T21:12:13.747Z,21.37
2023-05-19T21:17:15.704Z,21.33
2023-05-19T21:22:17.527Z,21.31
2023-05-19T21:27:19.505Z,21.26
2023-05-19T21:32:21.714Z,21.21
2023-05-19T21:37:23.476Z,21.16
2023-05-19T21:42:25.229Z,21.08
2023-05-19T21:47:27.496Z,20.97
2023-05-19T21:52:29.494Z,20.86
2023-05-19T21:57:31.462Z,20.77
2023-05-19T22:02:33.355Z,20.66
2023-05-19T22:07:35.069Z,20.54
2023-05-19T22:12:36.867Z,20.45
2023-05-19T22:17:38.834Z,20.33
2023-05-19T22:22:41.278Z,20.22
2023-05-19T22:27:43.033Z,20.14
2023-05-19T22:32:46.212Z,20.05
2023-05-19T22:37:47.913Z,19.97
2023-05-19T22:42:50.180Z,19.89
2023-05-19T22:47:52.009Z,19.80
2023-05-19T22:52:53.961Z,19.71
2023-05-19T22:57:55.849Z,19.60
2023-05-19T23:02:57.661Z,19.51
2023-05-19T23:07:59.611Z,19.43
2023-05-19T23:13:01.472Z,19.32
2023-05-19T23:18:03.411Z,19.25
2023-05-19T23:23:05.348Z,19.19
2023-05-19T23:28:07.235Z,19.11
2023-05-19T23:33:09.010Z,19.01
2023-05-19T23:38:10.892Z,18.93
2023-05-19T23:43:12.953Z,18.87
2023-05-19T23:48:14.646Z,18.80
2023-05-19T23:53:16.347Z,18.78
2023-05-19T23:58:18.184Z,18.77
